createdAt,value
2017-11-24T00:00:11.551Z,17.30
2017-11-24T00:02:39.036Z,22.07
2017-11-24T00:05:06.577Z,9.87
2017-11-24T00:07:34.027Z,19.07
2017-11-24T00:10:01.505Z,10.30
2017-11-24T00:12:28.954Z,10.00
2017-11-24T00:14:57.348Z,9.63
2017-11-24T00:17:24.840Z,7.03
2017-11-24T00:19:52.299Z,16.87
2017-11-24T00:22:19.823Z,13.47
2017-11-24T00:24:47.318Z,16.53
2017-11-24T00:27:14.799Z,12.40
2017-11-24T00:29:42.255Z,15.73
2017-11-24T00:32:09.702Z,21.57
2017-11-24T00:34:37.178Z,28.07
2017-11-24T00:37:05.039Z,29.27
2017-11-24T00:39:33.279Z,18.50
2017-11-24T00:42:00.738Z,14.37
2017-11-24T00:44:28.212Z,32.57
2017-11-24T00:46:55.685Z,17.73
2017-11-24T00:49:23.223Z,17.20
2017-11-24T00:51:50.692Z,9.00
2017-11-24T00:54:18.179Z,21.67
2017-11-24T00:56:45.740Z,18.52
2017-11-24T00:59:13.186Z,17.63
2017-11-24T01:01:41.434Z,20.33
2017-11-24T01:04:08.898Z,18.60
2017-11-24T01:06:36.345Z,9.20
2017-11-24T01:09:03.815Z,22.17
2017-11-24T01:11:31.270Z,12.53
2017-11-24T01:13:58.758Z,42.27
2017-11-24T01:16:27.042Z,18.47
2017-11-24T01:18:55.274Z,13.27
2017-11-24T01:21:23.499Z,13.93
2017-11-24T01:23:50.946Z,15.73
2017-11-24T01:26:18.531Z,32.80
2017-11-24T01:28:46.043Z,19.47
2017-11-24T01:31:13.502Z,20.30
2017-11-24T01:33:40.983Z,17.87
2017-11-24T01:36:09.234Z,15.87
2017-11-24T01:38:36.719Z,23.77
2017-11-24T01:41:04.175Z,19.17
2017-11-24T01:43:32.431Z,32.43
2017-11-24T01:45:59.878Z,12.47
2017-11-24T01:48:27.345Z,14.53
2017-11-24T01:50:54.814Z,36.70
2017-11-24T01:53:22.286Z,27.97
2017-11-24T01:55:49.872Z,18.93
2017-11-24T01:58:17.350Z,14.27
2017-11-24T02:00:44.855Z,23.67
2017-11-24T02:03:12.307Z,23.23
2017-11-24T02:05:40.535Z,13.73
2017-11-24T02:08:08.012Z,14.10
2017-11-24T02:10:35.478Z,23.53
2017-11-24T02:13:02.954Z,19.83
2017-11-24T02:15:30.402Z,24.23
2017-11-24T02:17:57.894Z,35.77
2017-11-24T02:20:25.390Z,25.87
2017-11-24T02:22:52.843Z,31.00
2017-11-24T02:25:20.354Z,19.23
2017-11-24T02:27:48.627Z,21.80
2017-11-24T02:30:16.864Z,23.10
2017-11-24T02:32:44.341Z,13.13
2017-11-24T02:35:11.843Z,35.07
2017-11-24T02:37:39.302Z,14.30
2017-11-24T02:40:06.788Z,43.63
2017-11-24T02:42:34.267Z,25.50
2017-11-24T02:45:01.770Z,17.83
2017-11-24T02:47:29.243Z,25.10
2017-11-24T02:49:56.695Z,18.73
2017-11-24T02:52:24.181Z,27.03
2017-11-24T02:54:52.437Z,16.23
2017-11-24T02:57:19.921Z,29.07
2017-11-24T02:59:47.398Z,16.90
2017-11-24T03:02:14.881Z,19.97
2017-11-24T03:04:43.111Z,14.30
2017-11-24T03:07:10.595Z,11.27
2017-11-24T03:09:38.082Z,21.43
2017-11-24T03:12:06.312Z,14.67
2017-11-24T03:14:33.814Z,12.13
2017-11-24T03:17:02.090Z,14.80
2017-11-24T03:19:31.279Z,13.50
2017-11-24T03:21:58.737Z,21.03
2017-11-24T03:24:26.978Z,21.47
2017-11-24T03:26:54.487Z,10.80
2017-11-24T03:29:22.722Z,24.60
2017-11-24T03:31:50.180Z,21.17
2017-11-24T03:34:17.667Z,23.10
2017-11-24T03:36:45.134Z,23.87
2017-11-24T03:39:12.614Z,20.00
2017-11-24T03:41:40.093Z,21.70
2017-11-24T03:44:07.590Z,18.37
2017-11-24T03:46:35.920Z,22.30
2017-11-24T03:49:03.431Z,25.00
2017-11-24T03:51:30.959Z,26.07
2017-11-24T03:53:58.417Z,12.20
2017-11-24T03:56:25.903Z,25.20
2017-11-24T03:58:53.358Z,14.90
2017-11-24T04:01:20.857Z,10.80
2017-11-24T04:03:48.318Z,36.53
2017-11-24T04:06:15.801Z,22.77
2017-11-24T04:08:43.264Z,16.23
2017-11-24T04:11:10.751Z,16.80
2017-11-24T04:13:38.247Z,16.87
2017-11-24T04:16:05.782Z,30.97
2017-11-24T04:18:34.031Z,20.70
2017-11-24T04:21:01.515Z,26.00
2017-11-24T04:23:28.997Z,16.70
2017-11-24T04:25:56.472Z,30.17
2017-11-24T04:28:23.954Z,18.50
2017-11-24T04:30:51.422Z,23.77
2017-11-24T04:33:18.918Z,15.43
2017-11-24T04:35:46.380Z,13.00
2017-11-24T04:38:13.958Z,11.33
2017-11-24T04:40:41.425Z,16.30
2017-11-24T04:43:08.915Z,19.37
2017-11-24T04:45:36.384Z,13.50
2017-11-24T04:48:03.830Z,14.50
2017-11-24T04:50:31.327Z,14.90
2017-11-24T04:52:59.546Z,9.73
2017-11-24T04:55:27.010Z,8.90
2017-11-24T04:57:54.507Z,11.17
2017-11-24T05:00:21.952Z,10.27
2017-11-24T05:02:49.409Z,13.57
2017-11-24T05:05:16.887Z,13.33
2017-11-24T05:07:44.350Z,9.57
2017-11-24T05:10:11.834Z,11.17
2017-11-24T05:12:39.319Z,17.70
2017-11-24T05:15:06.786Z,22.53
2017-11-24T05:17:34.268Z,21.13
2017-11-24T05:20:01.732Z,19.60
2017-11-24T05:22:29.185Z,25.47
2017-11-24T05:24:56.658Z,17.53
2017-11-24T05:27:24.307Z,26.67
2017-11-24T05:29:51.754Z,34.40
2017-11-24T05:32:19.859Z,34.03
2017-11-24T05:34:47.315Z,23.33
2017-11-24T05:37:15.571Z,21.13
2017-11-24T05:39:43.042Z,24.53
2017-11-24T05:42:10.540Z,26.00
2017-11-24T05:44:37.995Z,20.60
2017-11-24T05:47:05.478Z,31.93
2017-11-24T05:49:33.050Z,37.50
2017-11-24T05:52:00.524Z,40.80
2017-11-24T05:54:27.974Z,31.20
2017-11-24T05:56:55.483Z,23.97
2017-11-24T05:59:22.936Z,34.60
2017-11-24T06:01:50.393Z,33.23
2017-11-24T06:04:17.878Z,32.07
2017-11-24T06:06:45.390Z,28.90
2017-11-24T06:09:13.612Z,27.57
2017-11-24T06:11:41.086Z,26.03
2017-11-24T06:14:08.551Z,33.37
2017-11-24T06:16:36.037Z,37.10
2017-11-24T06:19:04.267Z,28.20
2017-11-24T06:21:31.766Z,31.10
2017-11-24T06:23:59.980Z,34.63
2017-11-24T06:26:27.440Z,29.03
2017-11-24T06:28:54.931Z,37.97
2017-11-24T06:31:22.403Z,25.83
2017-11-24T06:33:49.875Z,23.00
2017-11-24T06:36:18.160Z,26.40
2017-11-24T06:38:46.565Z,44.70
2017-11-24T06:41:14.065Z,40.63
2017-11-24T06:43:41.514Z,25.90
2017-11-24T06:46:08.998Z,35.23
2017-11-24T06:48:36.455Z,37.47
2017-11-24T06:51:03.927Z,33.27
2017-11-24T06:53:32.147Z,19.43
2017-11-24T06:55:59.638Z,33.93
2017-11-24T06:58:27.107Z,32.17
2017-11-24T07:00:54.582Z,33.90
2017-11-24T07:03:22.814Z,41.77
2017-11-24T07:05:50.364Z,20.33
2017-11-24T07:08:17.831Z,32.40
2017-11-24T07:10:45.292Z,35.37
2017-11-24T07:13:12.776Z,45.10
2017-11-24T07:15:40.234Z,30.57
2017-11-24T07:18:07.706Z,51.20
2017-11-24T07:20:35.175Z,30.97
2017-11-24T07:23:02.658Z,25.20
2017-11-24T07:25:30.117Z,34.00
2017-11-24T07:27:57.576Z,30.80
2017-11-24T07:30:25.059Z,28.33
2017-11-24T07:32:52.519Z,28.90
2017-11-24T07:35:20.007Z,32.13
2017-11-24T07:37:48.258Z,36.37
2017-11-24T07:40:15.738Z,61.17
2017-11-24T07:42:43.972Z,33.50
2017-11-24T07:45:11.598Z,33.67
2017-11-24T07:47:39.050Z,29.40
2017-11-24T07:50:08.023Z,30.27
2017-11-24T07:52:35.484Z,27.87
2017-11-24T07:55:02.967Z,29.70
2017-11-24T07:57:30.426Z,23.90
2017-11-24T07:59:57.914Z,29.27
2017-11-24T08:02:25.392Z,39.93
2017-11-24T08:04:52.870Z,19.43
2017-11-24T08:07:20.338Z,31.27
2017-11-24T08:09:47.817Z,33.20
2017-11-24T08:12:15.311Z,31.10
2017-11-24T08:14:42.771Z,46.80
2017-11-24T08:17:10.252Z,31.00
2017-11-24T08:19:37.811Z,28.93
2017-11-24T08:22:05.270Z,45.23
2017-11-24T08:24:32.755Z,33.90
2017-11-24T08:27:00.338Z,46.53
2017-11-24T08:29:27.816Z,23.40
2017-11-24T08:31:55.291Z,27.63
2017-11-24T08:34:22.780Z,33.77
2017-11-24T08:36:50.284Z,18.43
2017-11-24T08:39:17.754Z,22.37
2017-11-24T08:41:45.242Z,26.43
2017-11-24T08:44:12.703Z,26.20
2017-11-24T08:49:46.825Z,30.07
2017-11-24T08:52:14.299Z,33.47
2017-11-24T08:54:41.755Z,28.27
2017-11-24T08:57:09.240Z,36.30
2017-11-24T08:59:36.699Z,24.57
2017-11-24T09:02:04.186Z,32.40
2017-11-24T09:04:31.644Z,32.33
2017-11-24T09:06:59.102Z,33.57
2017-11-24T09:09:26.586Z,31.80
2017-11-24T09:11:54.078Z,31.70
2017-11-24T09:14:22.298Z,37.37
2017-11-24T09:16:49.813Z,17.70
2017-11-24T09:19:18.058Z,21.10
2017-11-24T09:21:45.540Z,17.97
2017-11-24T09:24:13.002Z,29.50
2017-11-24T09:26:40.500Z,22.47
2017-11-24T09:29:07.966Z,17.07
2017-11-24T09:31:35.485Z,22.00
2017-11-24T09:34:03.719Z,15.33
2017-11-24T09:36:31.203Z,10.90
2017-11-24T09:38:58.678Z,22.27
2017-11-24T09:41:26.939Z,19.97
2017-11-24T09:43:54.419Z,29.83
2017-11-24T09:46:22.706Z,29.13
2017-11-24T09:48:50.198Z,19.47
2017-11-24T09:51:17.660Z,25.90
2017-11-24T09:53:45.132Z,18.83
2017-11-24T09:56:12.603Z,29.07
2017-11-24T09:58:40.983Z,29.05
2017-11-24T10:01:08.466Z,22.73
2017-11-24T10:03:36.698Z,32.33
2017-11-24T10:06:04.184Z,19.23
2017-11-24T10:08:31.645Z,23.13
2017-11-24T10:10:59.913Z,12.30
2017-11-24T10:13:27.380Z,25.00
2017-11-24T10:15:55.708Z,16.90
2017-11-24T10:18:23.171Z,8.57
2017-11-24T10:20:56.232Z,17.17
2017-11-24T10:23:23.707Z,10.13
2017-11-24T10:25:51.203Z,8.10
2017-11-24T10:28:18.691Z,13.43
2017-11-24T10:30:46.922Z,9.23
2017-11-24T10:33:14.376Z,9.57
2017-11-24T10:35:41.871Z,11.50
2017-11-24T10:38:09.373Z,21.90
2017-11-24T10:40:36.839Z,19.20
2017-11-24T10:43:04.324Z,11.07
2017-11-24T10:45:31.792Z,15.40
2017-11-24T10:47:59.267Z,19.37
2017-11-24T10:50:26.730Z,8.63
2017-11-24T10:52:54.219Z,9.90
2017-11-24T10:55:21.689Z,11.40
2017-11-24T10:57:49.163Z,9.87
2017-11-24T11:00:16.663Z,8.50
2017-11-24T11:02:44.894Z,14.57
2017-11-24T11:05:12.371Z,12.70
2017-11-24T11:07:39.850Z,7.73
2017-11-24T11:10:08.086Z,9.43
2017-11-24T11:12:35.583Z,10.93
2017-11-24T11:15:03.050Z,13.30
2017-11-24T11:17:31.278Z,8.83
2017-11-24T11:19:58.759Z,24.53
2017-11-24T11:22:26.222Z,15.10
2017-11-24T11:24:53.683Z,20.83
2017-11-24T11:27:21.198Z,14.47
2017-11-24T11:29:48.691Z,8.70
2017-11-24T11:32:16.154Z,14.07
2017-11-24T11:34:43.623Z,15.00
2017-11-24T11:37:12.051Z,13.30
2017-11-24T11:39:39.520Z,19.60
2017-11-24T11:42:07.014Z,24.20
2017-11-24T11:44:34.479Z,20.20
2017-11-24T11:47:01.974Z,13.20
2017-11-24T11:49:29.471Z,8.10
2017-11-24T11:51:56.935Z,15.30
2017-11-24T11:54:24.402Z,14.53
2017-11-24T11:56:51.894Z,22.70
2017-11-24T11:59:20.154Z,15.00
2017-11-24T12:01:48.391Z,16.87
2017-11-24T12:04:15.875Z,10.47
2017-11-24T12:06:43.377Z,15.67
2017-11-24T12:09:10.874Z,19.10
2017-11-24T12:11:38.339Z,17.67
2017-11-24T12:14:05.819Z,10.00
2017-11-24T12:16:33.303Z,14.17
2017-11-24T12:19:00.799Z,12.57
2017-11-24T12:21:28.275Z,11.93
2017-11-24T12:23:55.730Z,13.53
2017-11-24T12:26:23.233Z,10.77
2017-11-24T12:28:51.462Z,10.33
2017-11-24T12:31:18.999Z,13.10
2017-11-24T12:33:46.498Z,15.43
2017-11-24T12:36:13.951Z,9.87
2017-11-24T12:38:41.411Z,15.37
2017-11-24T12:41:08.910Z,10.33
2017-11-24T12:43:36.377Z,12.70
2017-11-24T12:46:03.875Z,5.50
2017-11-24T12:48:31.344Z,8.45
2017-11-24T12:50:58.827Z,14.90
2017-11-24T12:53:27.055Z,10.17
2017-11-24T12:55:54.527Z,7.33
2017-11-24T12:58:22.776Z,15.63
2017-11-24T13:00:50.271Z,14.20
2017-11-24T13:03:17.742Z,8.40
2017-11-24T13:05:45.207Z,10.20
2017-11-24T13:08:14.381Z,13.13
2017-11-24T13:10:41.864Z,9.17
2017-11-24T13:13:09.329Z,6.77
2017-11-24T13:15:36.812Z,11.60
2017-11-24T13:18:04.315Z,10.07
2017-11-24T13:20:31.786Z,7.17
2017-11-24T13:22:59.279Z,4.97
2017-11-24T13:25:26.735Z,7.37
2017-11-24T13:27:54.191Z,8.00
2017-11-24T13:30:21.671Z,3.90
2017-11-24T13:32:49.161Z,7.47
2017-11-24T13:35:17.595Z,8.27
2017-11-24T13:37:45.048Z,16.30
2017-11-24T13:40:12.522Z,8.40
2017-11-24T13:42:40.006Z,8.30
2017-11-24T13:45:07.459Z,8.80
2017-11-24T13:47:35.090Z,9.43
2017-11-24T13:50:02.554Z,9.83
2017-11-24T13:52:30.023Z,9.90
2017-11-24T13:54:57.502Z,6.87
2017-11-24T13:57:24.999Z,5.73
2017-11-24T13:59:53.243Z,7.10
2017-11-24T14:02:20.719Z,7.03
2017-11-24T14:04:48.184Z,4.43
2017-11-24T14:07:16.406Z,6.70
2017-11-24T14:09:44.659Z,5.43
2017-11-24T14:12:12.899Z,3.80
2017-11-24T14:14:40.391Z,4.87
2017-11-24T14:17:07.851Z,3.90
2017-11-24T14:19:35.306Z,7.03
2017-11-24T14:22:02.787Z,5.07
2017-11-24T14:24:30.283Z,16.00
2017-11-24T14:26:57.758Z,7.57
2017-11-24T14:29:25.231Z,9.27
2017-11-24T14:31:53.447Z,8.23
2017-11-24T14:34:20.956Z,6.33
2017-11-24T14:36:48.403Z,7.30
2017-11-24T14:39:15.886Z,7.80
2017-11-24T14:41:44.143Z,7.77
2017-11-24T14:44:11.841Z,7.90
2017-11-24T14:46:39.340Z,8.53
2017-11-24T14:49:06.800Z,17.33
2017-11-24T14:51:34.269Z,8.57
2017-11-24T14:54:01.756Z,8.40
2017-11-24T14:56:29.323Z,8.53
2017-11-24T14:58:57.551Z,8.73
2017-11-24T15:01:25.043Z,8.23
2017-11-24T15:03:53.266Z,13.10
2017-11-24T15:06:20.747Z,9.43
2017-11-24T15:08:48.243Z,14.53
2017-11-24T15:11:16.538Z,13.37
2017-11-24T15:13:44.034Z,14.13
2017-11-24T15:16:11.499Z,19.27
2017-11-24T15:18:38.955Z,10.20
2017-11-24T15:21:06.453Z,16.20
2017-11-24T15:23:33.915Z,13.60
2017-11-24T15:26:02.144Z,10.40
2017-11-24T15:28:29.630Z,13.73
2017-11-24T15:30:57.107Z,9.60
2017-11-24T15:33:24.560Z,11.00
2017-11-24T15:35:52.815Z,12.83
2017-11-24T15:38:20.282Z,12.80
2017-11-24T15:40:47.743Z,12.13
2017-11-24T15:43:16.929Z,11.63
2017-11-24T15:45:44.414Z,14.20
2017-11-24T15:48:11.888Z,10.80
2017-11-24T15:50:39.370Z,14.00
2017-11-24T15:53:06.838Z,12.20
2017-11-24T15:55:34.331Z,10.60
2017-11-24T15:58:01.816Z,14.00
2017-11-24T16:00:30.035Z,10.63
2017-11-24T16:02:57.523Z,24.27
2017-11-24T16:05:24.988Z,18.23
2017-11-24T16:07:53.252Z,17.40
2017-11-24T16:10:20.715Z,15.87
2017-11-24T16:12:48.204Z,11.10
2017-11-24T16:15:17.371Z,17.60
2017-11-24T16:17:44.870Z,12.70
2017-11-24T16:20:12.339Z,15.93
2017-11-24T16:22:39.795Z,16.70
2017-11-24T16:25:07.279Z,19.53
2017-11-24T16:27:34.759Z,19.80
2017-11-24T16:30:02.251Z,18.80
2017-11-24T16:32:30.470Z,16.13
2017-11-24T16:34:57.964Z,18.53
2017-11-24T16:37:26.196Z,13.13
2017-11-24T16:39:53.671Z,12.07
2017-11-24T16:42:21.150Z,16.00
2017-11-24T16:44:48.603Z,13.83
2017-11-24T16:47:16.081Z,14.33
2017-11-24T16:49:44.803Z,18.87
2017-11-24T16:52:12.256Z,18.33
2017-11-24T16:54:39.751Z,14.77
2017-11-24T16:57:07.465Z,20.57
2017-11-24T16:59:35.122Z,10.97
2017-11-24T17:02:02.628Z,25.53
2017-11-24T17:04:30.134Z,18.70
2017-11-24T17:06:58.354Z,14.20
2017-11-24T17:09:25.799Z,14.77
2017-11-24T17:11:53.271Z,16.67
2017-11-24T17:14:20.723Z,15.90
2017-11-24T17:16:49.807Z,20.65
2017-11-24T17:19:17.271Z,14.93
2017-11-24T17:21:44.779Z,13.27
2017-11-24T17:24:12.268Z,19.90
2017-11-24T17:26:39.880Z,17.80
2017-11-24T17:29:07.351Z,17.97
2017-11-24T17:31:34.855Z,17.77
2017-11-24T17:34:02.322Z,19.60
2017-11-24T17:36:29.977Z,19.55
2017-11-24T17:38:58.684Z,17.70
2017-11-24T17:41:27.009Z,18.93
2017-11-24T17:43:55.315Z,19.98
2017-11-24T17:46:22.789Z,25.50
2017-11-24T17:48:50.652Z,30.90
2017-11-24T17:51:19.270Z,25.10
2017-11-24T17:53:46.780Z,20.87
2017-11-24T17:56:14.255Z,26.33
2017-11-24T17:58:41.944Z,22.40
2017-11-24T18:01:09.407Z,26.50
2017-11-24T18:03:36.860Z,21.20
2017-11-24T18:06:04.338Z,24.37
2017-11-24T18:08:31.953Z,22.60
2017-11-24T18:10:59.656Z,21.07
2017-11-24T18:13:27.129Z,27.13
2017-11-24T18:15:54.825Z,22.17
2017-11-24T18:18:22.540Z,23.40
2017-11-24T18:20:50.029Z,24.17
2017-11-24T18:23:18.267Z,24.40
2017-11-24T18:25:45.725Z,22.80
2017-11-24T18:28:13.441Z,24.80
2017-11-24T18:30:40.954Z,22.10
2017-11-24T18:33:08.439Z,25.87
2017-11-24T18:35:36.741Z,32.10
2017-11-24T18:38:04.246Z,25.80
2017-11-24T18:40:31.863Z,29.20
2017-11-24T18:42:59.568Z,26.42
2017-11-24T18:45:27.082Z,28.83
2017-11-24T18:47:54.889Z,35.33
2017-11-24T18:50:22.345Z,32.70
2017-11-24T18:52:50.080Z,25.67
2017-11-24T18:55:17.532Z,26.73
2017-11-24T18:57:44.998Z,27.37
2017-11-24T19:00:12.490Z,29.27
2017-11-24T19:02:39.938Z,33.70
2017-11-24T19:05:07.412Z,26.95
2017-11-24T19:07:34.888Z,25.80
2017-11-24T19:10:02.378Z,31.30
2017-11-24T19:12:29.840Z,30.03
2017-11-24T19:14:57.539Z,32.27
2017-11-24T19:17:25.852Z,29.07
2017-11-24T19:19:54.139Z,29.87
2017-11-24T19:22:22.366Z,34.20
2017-11-24T19:24:50.888Z,27.07
2017-11-24T19:27:19.184Z,30.70
2017-11-24T19:29:47.434Z,32.87
2017-11-24T19:32:14.936Z,28.83
2017-11-24T19:34:42.403Z,32.03
2017-11-24T19:37:09.939Z,31.93
2017-11-24T19:39:37.458Z,24.07
2017-11-24T19:42:04.935Z,35.73
2017-11-24T19:44:32.424Z,24.90
2017-11-24T19:46:59.883Z,35.53
2017-11-24T19:49:27.366Z,32.27
2017-11-24T19:51:54.823Z,32.07
2017-11-24T19:54:22.304Z,27.27
2017-11-24T19:56:49.764Z,44.23
2017-11-24T19:59:17.243Z,30.53
2017-11-24T20:01:44.704Z,36.00
2017-11-24T20:04:12.179Z,31.20
2017-11-24T20:06:40.467Z,34.80
2017-11-24T20:09:07.930Z,35.10
2017-11-24T20:11:35.403Z,36.20
2017-11-24T20:14:02.883Z,33.00
2017-11-24T20:16:30.702Z,33.93
2017-11-24T20:18:58.472Z,35.20
2017-11-24T20:21:25.969Z,35.63
2017-11-24T20:23:53.463Z,33.23
2017-11-24T20:26:21.772Z,35.67
2017-11-24T20:28:49.357Z,33.47
2017-11-24T20:31:17.031Z,41.60
2017-11-24T20:33:46.714Z,33.73
2017-11-24T20:36:14.282Z,36.57
2017-11-24T20:38:41.742Z,38.27
2017-11-24T20:41:09.482Z,44.10
2017-11-24T20:43:36.973Z,33.17
2017-11-24T20:46:04.709Z,39.23
2017-11-24T20:48:32.181Z,32.37
2017-11-24T20:50:59.658Z,35.83
2017-11-24T20:53:27.158Z,35.87
2017-11-24T20:55:55.413Z,44.80
2017-11-24T20:58:22.905Z,41.53
2017-11-24T21:00:50.405Z,42.50
2017-11-24T21:03:17.886Z,48.43
2017-11-24T21:05:45.400Z,44.30
2017-11-24T21:08:12.945Z,43.10
2017-11-24T21:10:40.513Z,52.63
2017-11-24T21:13:08.148Z,48.27
2017-11-24T21:15:36.382Z,50.17
2017-11-24T21:18:03.878Z,46.92
2017-11-24T21:20:31.331Z,39.90
2017-11-24T21:22:58.822Z,39.70
2017-11-24T21:25:27.042Z,36.97
2017-11-24T21:27:54.540Z,37.33
2017-11-24T21:30:22.019Z,37.33
2017-11-24T21:32:49.474Z,39.17
2017-11-24T21:35:16.960Z,46.47
2017-11-24T21:37:44.412Z,42.33
2017-11-24T21:40:11.891Z,44.57
2017-11-24T21:42:39.376Z,49.80
2017-11-24T21:45:07.658Z,44.80
2017-11-24T21:47:35.154Z,48.27
2017-11-24T21:50:02.628Z,48.33
2017-11-24T21:52:30.115Z,42.00
2017-11-24T21:54:57.580Z,49.93
2017-11-24T21:57:25.070Z,48.80
2017-11-24T21:59:54.226Z,54.33
2017-11-24T22:02:21.706Z,43.83
2017-11-24T22:04:49.209Z,43.57
2017-11-24T22:07:16.703Z,44.03
2017-11-24T22:09:44.171Z,43.03
2017-11-24T22:12:11.631Z,48.50
2017-11-24T22:14:39.106Z,49.60
2017-11-24T22:17:06.606Z,50.20
2017-11-24T22:19:34.083Z,53.17
2017-11-24T22:22:01.577Z,52.10
2017-11-24T22:24:29.834Z,52.70
2017-11-24T22:26:58.148Z,40.70
2017-11-24T22:29:26.422Z,58.70
2017-11-24T22:31:54.190Z,54.90
2017-11-24T22:34:21.657Z,54.20
2017-11-24T22:36:49.139Z,52.63
2017-11-24T22:39:16.639Z,49.37
2017-11-24T22:41:44.101Z,47.67
2017-11-24T22:44:11.607Z,43.87
2017-11-24T22:46:39.102Z,50.83
2017-11-24T22:49:06.560Z,58.90
2017-11-24T22:51:34.060Z,50.77
2017-11-24T22:54:01.531Z,54.87
2017-11-24T22:56:29.074Z,49.43
2017-11-24T22:58:57.314Z,46.37
2017-11-24T23:01:24.771Z,49.37
2017-11-24T23:03:52.262Z,55.47
2017-11-24T23:06:20.503Z,54.80
2017-11-24T23:08:47.985Z,44.70
2017-11-24T23:11:15.454Z,44.43
2017-11-24T23:13:43.679Z,54.47
2017-11-24T23:16:11.180Z,57.63
2017-11-24T23:18:38.654Z,44.20
2017-11-24T23:21:06.881Z,55.20
2017-11-24T23:23:34.359Z,49.33
2017-11-24T23:26:01.874Z,53.13
2017-11-24T23:28:29.338Z,51.17
2017-11-24T23:30:56.815Z,51.03
2017-11-24T23:33:25.232Z,46.40
2017-11-24T23:35:53.486Z,45.53
2017-11-24T23:38:20.982Z,58.83
2017-11-24T23:40:49.236Z,49.03
2017-11-24T23:43:17.578Z,51.07
2017-11-24T23:45:45.049Z,41.40
2017-11-24T23:48:12.528Z,39.13
2017-11-24T23:50:40.007Z,38.87
2017-11-24T23:53:07.493Z,45.23
2017-11-24T23:55:35.053Z,41.47
2017-11-24T23:58:02.536Z,42.67
